• Join FlightAware (Why Join?)
  • Login
  • US Flag 
03:53PM EST


 

Airport Tracker/Info


-or-


 

Live Flight TrackerFlight Track Log ✈ QFA556 ✈ 03-May-2012 ✈ YSSY / SYD - YBBN / BNE

Flight Track Log - Related Links

Times and Time Zones

All times are in EDT time to prevent confusion due to time zone crossing. See the QFA556 flight status page for this flight to view local times or setup timezone preferences in your user account.

Time Position Orientation Groundspeed Altitude Reporting Facility
EDT Latitude Longitude Course Direction KTS MPH feet Rate Location/Type
07:19AM -33.9746 151.1949 126° Southeast 155 178 900  Level Aus ATC (RADAR)
07:20AM -34.0081 151.2514 143° Southeast 227 261 3,400 2,820 Climbing Aus ATC (RADAR)
07:21AM -34.0657 151.3038 121° Southeast 272 313 6,800 3,480 Climbing Aus ATC (RADAR)
07:22AM -34.0917 151.3561 58° Northeast 284 327 9,400 3,360 Climbing Aus ATC (RADAR)
07:23AM -34.0673 151.4032 17° North 298 343 11,100 2,280 Climbing Aus ATC (RADAR)
07:23AM -34.0164 151.4222 16° North 340 391 12,000 2,640 Climbing Aus ATC (RADAR)
07:24AM -33.9510 151.4453 17° North 366 421 14,400 3,480 Climbing Aus ATC (RADAR)
07:25AM -33.8942 151.4666 17° North 367 422 16,400 3,300 Climbing Aus ATC (RADAR)
07:26AM -33.7546 151.5183 17° North 396 456 20,800 3,120 Climbing Aus ATC (RADAR)
07:27AM -33.6560 151.5547 18° North 408 470 23,600 2,880 Climbing Aus ATC (RADAR)
07:27AM -33.5834 151.5825 17° North 413 475 25,400 2,700 Climbing Aus ATC (RADAR)
07:28AM -33.5179 151.6070 17° North 426 490 27,000 2,520 Climbing Aus ATC (RADAR)
07:29AM -33.4507 151.6320 17° North 433 498 28,400 2,400 Climbing Aus ATC (RADAR)
07:29AM -33.3921 151.6540 17° North 441 507 29,600 2,580 Climbing Aus ATC (RADAR)
07:30AM -33.3233 151.6797 17° North 444 511 31,200 2,220 Climbing Aus ATC (RADAR)
07:31AM -33.2066 151.7230 17° North 439 505 33,200 960 Climbing Aus ATC (RADAR)
07:32AM -33.0891 151.7670 17° North 442 509 33,200  Level Aus ATC (RADAR)
07:32AM -33.0113 151.7961 17° North 439 505 33,200  Level Aus ATC (RADAR)
07:33AM -32.9430 151.8213 17° North 440 506 33,200  Level Aus ATC (RADAR)
07:34AM -32.8746 151.8467 17° North 441 507 33,200  Level Aus ATC (RADAR)
07:34AM -32.8159 151.8682 17° North 440 506 33,200  Level Aus ATC (RADAR)
07:35AM -32.7473 151.8937 17° North 442 509 33,200  Level Aus ATC (RADAR)
07:36AM -32.6098 151.9443 17° North 444 511 33,200  Level Aus ATC (RADAR)
07:37AM -32.4912 151.9883 17° North 444 511 33,200  Level Aus ATC (RADAR)
07:38AM -32.3929 152.0246 17° North 446 513 33,200  Level Aus ATC (RADAR)
07:38AM -32.3232 152.0493 18° North 448 516 33,200  Level Aus ATC (RADAR)
07:39AM -32.2638 152.0719 17° North 444 511 33,200  Level Aus ATC (RADAR)
07:39AM -32.1946 152.0965 17° North 448 516 33,200  Level Aus ATC (RADAR)
07:40AM -32.1250 152.1222 17° North 445 512 33,200  Level Aus ATC (RADAR)
07:41AM -31.9863 152.1723 17° North 448 516 33,200  Level Aus ATC (RADAR)
07:42AM -31.8666 152.2151 17° North 447 514 33,200 -60 Level Aus ATC (RADAR)
07:43AM -31.7682 152.2513 17° North 448 516 33,100  Descending Aus ATC (RADAR)
07:43AM -31.7082 152.2733 17° North 446 513 33,200 60 Climbing Aus ATC (RADAR)
07:44AM -31.6389 152.2982 17° North 446 513 33,200  Level Aus ATC (RADAR)
07:45AM -31.5101 152.3450 17° North 444 511 33,200  Level Aus ATC (RADAR)
07:46AM -31.4312 152.3730 17° North 443 510 33,200 -120 Level Aus ATC (RADAR)
07:46AM -31.3621 152.3985 17° North 444 511 33,100  Descending Aus ATC (RADAR)
07:47AM -31.2833 152.4263 17° North 443 510 33,200 60 Climbing Aus ATC (RADAR)
07:48AM -31.2031 152.4553 17° North 444 511 33,200 -60 Level Aus ATC (RADAR)
07:49AM -31.0848 152.4971 17° North 447 514 33,100  Descending Aus ATC (RADAR)
07:49AM -31.0054 152.5254 17° North 449 517 33,200 60 Climbing Aus ATC (RADAR)
07:50AM -30.9447 152.5467 17° North 446 513 33,200 -120 Level Aus ATC (RADAR)
07:51AM -30.8555 152.5783 17° North 444 511 33,100  Descending Aus ATC (RADAR)
07:51AM -30.7874 152.6027 17° North 449 517 33,200 60 Climbing Aus ATC (RADAR)
07:52AM -30.7268 152.6241 17° North 444 511 33,200  Level Aus ATC (RADAR)
07:52AM -30.6575 152.6483 17° North 444 511 33,200  Level Aus ATC (RADAR)
07:53AM -30.5980 152.6692 17° North 443 510 33,200  Level Aus ATC (RADAR)
07:53AM -30.5285 152.6937 17° North 443 510 33,200  Level Aus ATC (RADAR)
07:54AM -30.4608 152.7184 17° North 449 517 33,200  Level Aus ATC (RADAR)
07:54AM -30.3817 152.7459 16° North 446 513 33,200  Level Aus ATC (RADAR)
07:55AM -30.3206 152.7665 17° North 441 507 33,200  Level Aus ATC (RADAR)
07:56AM -30.2218 152.8012 17° North 442 509 33,200  Level Aus ATC (RADAR)
07:56AM -30.1528 152.8257 17° North 442 509 33,200  Level Aus ATC (RADAR)
07:57AM -30.0852 152.8501 17° North 447 514 33,200  Level Aus ATC (RADAR)
07:58AM -30.0062 152.8774 16° North 445 512 33,200  Level Aus ATC (RADAR)
07:58AM -29.9450 152.8979 16° North 443 510 33,200  Level Aus ATC (RADAR)
07:59AM -29.8756 152.9215 17° North 442 509 33,200  Level Aus ATC (RADAR)
08:00AM -29.7485 152.9665 16° North 446 513 33,200  Level Aus ATC (RADAR)
08:00AM -29.6878 152.9865 17° North 440 506 33,200  Level Aus ATC (RADAR)
08:01AM -29.5791 153.0237 17° North 440 506 33,200  Level Aus ATC (RADAR)
08:02AM -29.4597 153.0653 17° North 445 512 33,200  Level Aus ATC (RADAR)
08:03AM -29.3802 153.0925 17° North 443 510 33,200  Level Aus ATC (RADAR)
08:03AM -29.3203 153.1132 16° North 445 512 33,200  Level Aus ATC (RADAR)
08:04AM -29.2505 153.1364 17° North 444 511 33,200  Level Aus ATC (RADAR)
08:05AM -29.1712 153.1646 17° North 444 511 33,200 -120 Level Aus ATC (RADAR)
08:05AM -29.1021 153.1891 17° North 451 519 33,100 -720 Descending Aus ATC (RADAR)
08:06AM -28.9928 153.2262 16° North 442 509 32,200 -1,680 Descending Aus ATC (RADAR)
08:07AM -28.8872 153.2617 17° North 417 480 30,000 -2,340 Descending Aus ATC (RADAR)
08:08AM -28.7947 153.2943 16° North 417 480 28,200 -2,040 Descending Aus ATC (RADAR)
08:09AM -28.6961 153.3271 16° North 389 448 26,500 -1,980 Descending Aus ATC (RADAR)
08:09AM -28.6262 153.3493 16° North 382 440 25,000 -2,160 Descending Aus ATC (RADAR)
08:10AM -28.5666 153.3691 17° North 375 432 23,800 -1,920 Descending Aus ATC (RADAR)
08:11AM -28.4934 153.3942 18° North 358 412 22,500 -1,920 Descending Aus ATC (RADAR)
08:11AM -28.4462 153.4115 17° North 350 403 21,400 -2,520 Descending Aus ATC (RADAR)
08:12AM -28.3911 153.4304 16° North 345 397 19,800 -2,700 Descending Aus ATC (RADAR)
08:12AM -28.3363 153.4488 15° North 358 412 18,400 -2,160 Descending Aus ATC (RADAR)
08:13AM -28.2734 153.4679 357° North 351 404 17,200 -1,860 Descending Aus ATC (RADAR)
08:14AM -28.2293 153.4653 332° Northwest 292 336 16,200 -1,740 Descending Aus ATC (RADAR)
08:14AM -28.1709 153.4305 335° Northwest 329 379 15,200 -1,740 Descending Aus ATC (RADAR)
08:15AM -28.0900 153.3876 336° Northwest 318 366 13,400 -2,040 Descending Aus ATC (RADAR)
08:16AM -28.0284 153.3560 334° Northwest 323 372 11,700 -2,160 Descending Aus ATC (RADAR)
08:17AM -27.9742 153.3259 334° Northwest 332 382 10,400 -1,500 Descending Aus ATC (RADAR)
08:17AM -27.9267 153.3001 329° Northwest 323 372 9,900 -960 Descending Aus ATC (RADAR)
08:18AM -27.8885 153.2736 322° Northwest 320 368 9,400 -900 Descending Aus ATC (RADAR)
08:18AM -27.8533 153.2424 324° Northwest 318 366 9,000 -780 Descending Aus ATC (RADAR)
08:19AM -27.8137 153.2094 320° Northwest 294 338 8,600 -1,080 Descending Aus ATC (RADAR)
08:20AM -27.7733 153.1716 326° Northwest 282 325 7,700 -1,560 Descending Aus ATC (RADAR)
08:21AM -27.6983 153.1136 322° Northwest 278 320 5,800 -1,560 Descending Aus ATC (RADAR)
08:21AM -27.6582 153.0778 328° Northwest 273 314 4,900 -1,140 Descending Aus ATC (RADAR)
08:22AM -27.6238 153.0531 329° Northwest 247 284 4,400 -1,020 Descending Aus ATC (RADAR)
08:22AM -27.5963 153.0345 351° North 229 264 3,800 -840 Descending Aus ATC (RADAR)
08:23AM -27.5635 153.0287 23° Northeast 209 241 3,500 -780 Descending Aus ATC (RADAR)
08:24AM -27.5371 153.0414 26° Northeast 206 237 3,000 -1,140 Descending Aus ATC (RADAR)
08:24AM -27.5087 153.0570 28° Northeast 192 221 2,300 -1,080 Descending Aus ATC (RADAR)
08:25AM -27.4831 153.0721 27° Northeast 174 200 1,800 -780 Descending Aus ATC (RADAR)
08:25AM -27.4622 153.0840 27° Northeast 143 165 1,400 -720 Descending Aus ATC (RADAR)
08:26AM -27.4437 153.0947 27° Northeast 131 151 1,000 -780 Descending Aus ATC (RADAR)
08:27AM -27.4185 153.1089 27° Northeast 139 160 400 -840 Descending Aus ATC (RADAR)